sensor_id;sensor_type;location;lat;lon;timestamp;pressure;altitude;pressure_sealevel;temperature;humidity
27984;BME280;15317;50.360;8.726;2023-05-12T00:02:07;99376.19;;;11.32;100.00
27984;BME280;15317;50.360;8.726;2023-05-12T00:07:10;99370.56;;;11.34;100.00
27984;BME280;15317;50.360;8.726;2023-05-12T00:12:15;99385.69;;;11.28;100.00
27984;BME280;15317;50.360;8.726;2023-05-12T00:17:18;99373.78;;;11.21;100.00
27984;BME280;15317;50.360;8.726;2023-05-12T00:22:22;99377.84;;;11.17;100.00
27984;BME280;15317;50.360;8.726;2023-05-12T00:27:26;99374.13;;;11.18;100.00
27984;BME280;15317;50.360;8.726;2023-05-12T00:32:31;99377.84;;;11.17;100.00
27984;BME280;15317;50.360;8.726;2023-05-12T00:37:35;99373.25;;;11.18;100.00
27984;BME280;15317;50.360;8.726;2023-05-12T00:42:40;99376.81;;;11.10;100.00
27984;BME280;15317;50.360;8.726;2023-05-12T00:47:44;99374.78;;;11.12;100.00
27984;BME280;15317;50.360;8.726;2023-05-12T00:52:48;99376.47;;;11.13;100.00
27984;BME280;15317;50.360;8.726;2023-05-12T00:57:53;99368.81;;;11.08;100.00
27984;BME280;15317;50.360;8.726;2023-05-12T01:02:57;99374.41;;;11.07;100.00
27984;BME280;15317;50.360;8.726;2023-05-12T01:08:02;99367.97;;;11.08;100.00
27984;BME280;15317;50.360;8.726;2023-05-12T01:13:06;99372.91;;;11.04;100.00
27984;BME280;15317;50.360;8.726;2023-05-12T01:18:10;99376.47;;;11.05;100.00
27984;BME280;15317;50.360;8.726;2023-05-12T01:23:17;99372.72;;;10.98;100.00
27984;BME280;15317;50.360;8.726;2023-05-12T01:28:22;99378.47;;;10.95;100.00
27984;BME280;15317;50.360;8.726;2023-05-12T01:33:26;99380.16;;;10.96;100.00
27984;BME280;15317;50.360;8.726;2023-05-12T01:38:30;99374.72;;;10.96;100.00
27984;BME280;15317;50.360;8.726;2023-05-12T01:43:35;99385.25;;;10.91;100.00
27984;BME280;15317;50.360;8.726;2023-05-12T01:48:38;99379.97;;;10.89;100.00
27984;BME280;15317;50.360;8.726;2023-05-12T01:53:41;99386.91;;;10.84;100.00
27984;BME280;15317;50.360;8.726;2023-05-12T01:58:46;99386.91;;;10.84;100.00
27984;BME280;15317;50.360;8.726;2023-05-12T02:03:49;99388.25;;;10.80;100.00
27984;BME280;15317;50.360;8.726;2023-05-12T02:08:52;99387.22;;;10.81;100.00
27984;BME280;15317;50.360;8.726;2023-05-12T02:13:57;99394.06;;;10.85;100.00
27984;BME280;15317;50.360;8.726;2023-05-12T02:19:00;99403.88;;;10.86;100.00
27984;BME280;15317;50.360;8.726;2023-05-12T02:24:04;99406.09;;;10.82;100.00
27984;BME280;15317;50.360;8.726;2023-05-12T02:29:08;99410.53;;;10.83;100.00
27984;BME280;15317;50.360;8.726;2023-05-12T02:34:12;99426.47;;;10.86;100.00
27984;BME280;15317;50.360;8.726;2023-05-12T02:39:16;99424.09;;;10.83;100.00
27984;BME280;15317;50.360;8.726;2023-05-12T02:44:20;99423.59;;;10.88;100.00
27984;BME280;15317;50.360;8.726;2023-05-12T02:49:24;99424.41;;;10.80;100.00
27984;BME280;15317;50.360;8.726;2023-05-12T02:54:27;99422.25;;;10.84;100.00
27984;BME280;15317;50.360;8.726;2023-05-12T02:59:32;99428.69;;;10.83;100.00
27984;BME280;15317;50.360;8.726;2023-05-12T03:04:35;99439.88;;;10.80;100.00
27984;BME280;15317;50.360;8.726;2023-05-12T03:09:39;99433.75;;;10.78;100.00
27984;BME280;15317;50.360;8.726;2023-05-12T03:14:44;99438.16;;;10.79;100.00
27984;BME280;15317;50.360;8.726;2023-05-12T03:19:47;99434.44;;;10.80;100.00
27984;BME280;15317;50.360;8.726;2023-05-12T03:24:50;99438.16;;;10.79;100.00
27984;BME280;15317;50.360;8.726;2023-05-12T03:29:55;99434.44;;;10.80;100.00
27984;BME280;15317;50.360;8.726;2023-05-12T03:34:58;99440.91;;;10.87;100.00
27984;BME280;15317;50.360;8.726;2023-05-12T03:40:01;99439.75;;;10.89;100.00
27984;BME280;15317;50.360;8.726;2023-05-12T03:45:08;99438.75;;;10.90;100.00
27984;BME280;15317;50.360;8.726;2023-05-12T03:50:11;99442.78;;;10.86;100.00
27984;BME280;15317;50.360;8.726;2023-05-12T03:55:14;99450.94;;;10.86;100.00
27984;BME280;15317;50.360;8.726;2023-05-12T04:00:19;99451.47;;;10.90;100.00
27984;BME280;15317;50.360;8.726;2023-05-12T04:05:22;99452.47;;;10.89;100.00
27984;BME280;15317;50.360;8.726;2023-05-12T04:10:26;99453.19;;;10.91;100.00
27984;BME280;15317;50.360;8.726;2023-05-12T04:15:30;99457.41;;;10.93;100.00
27984;BME280;15317;50.360;8.726;2023-05-12T04:20:34;99451.00;;;11.02;100.00
27984;BME280;15317;50.360;8.726;2023-05-12T04:25:38;99459.00;;;11.04;100.00
27984;BME280;15317;50.360;8.726;2023-05-12T04:30:43;99462.28;;;11.16;100.00
27984;BME280;15317;50.360;8.726;2023-05-12T04:35:46;99469.63;;;11.23;100.00
27984;BME280;15317;50.360;8.726;2023-05-12T04:40:49;99471.63;;;11.21;100.00
27984;BME280;15317;50.360;8.726;2023-05-12T04:45:54;99473.88;;;11.26;100.00
27984;BME280;15317;50.360;8.726;2023-05-12T04:51:00;99472.69;;;11.28;100.00
27984;BME280;15317;50.360;8.726;2023-05-12T04:56:03;99483.41;;;11.30;100.00
27984;BME280;15317;50.360;8.726;2023-05-12T05:01:08;99487.63;;;11.24;100.00
27984;BME280;15317;50.360;8.726;2023-05-12T05:06:13;99486.13;;;11.30;100.00
27984;BME280;15317;50.360;8.726;2023-05-12T05:11:16;99487.28;;;11.27;100.00
27984;BME280;15317;50.360;8.726;2023-05-12T05:16:20;99494.59;;;11.27;100.00
27984;BME280;15317;50.360;8.726;2023-05-12T05:21:24;99497.81;;;11.22;100.00
27984;BME280;15317;50.360;8.726;2023-05-12T05:26:27;99500.88;;;11.27;100.00
27984;BME280;15317;50.360;8.726;2023-05-12T05:31:31;99500.56;;;11.30;100.00
27984;BME280;15317;50.360;8.726;2023-05-12T05:36:35;99508.75;;;11.38;100.00
27984;BME280;15317;50.360;8.726;2023-05-12T05:41:38;99518.47;;;11.49;100.00
27984;BME280;15317;50.360;8.726;2023-05-12T05:46:42;99510.47;;;11.47;100.00
27984;BME280;15317;50.360;8.726;2023-05-12T05:51:45;99514.94;;;11.57;100.00
27984;BME280;15317;50.360;8.726;2023-05-12T05:56:49;99516.97;;;11.55;100.00
27984;BME280;15317;50.360;8.726;2023-05-12T06:01:53;99515.97;;;11.64;100.00
27984;BME280;15317;50.360;8.726;2023-05-12T06:06:56;99523.31;;;11.71;100.00
27984;BME280;15317;50.360;8.726;2023-05-12T06:12:00;99530.84;;;11.77;100.00
27984;BME280;15317;50.360;8.726;2023-05-12T06:17:04;99526.59;;;11.83;100.00
27984;BME280;15317;50.360;8.726;2023-05-12T06:22:07;99530.69;;;11.95;100.00
27984;BME280;15317;50.360;8.726;2023-05-12T06:27:10;99531.03;;;12.08;100.00
27984;BME280;15317;50.360;8.726;2023-05-12T06:32:15;99521.72;;;12.27;100.00
27984;BME280;15317;50.360;8.726;2023-05-12T06:37:19;99526.66;;;12.48;100.00
27984;BME280;15317;50.360;8.726;2023-05-12T06:42:22;99510.47;;;12.38;100.00
27984;BME280;15317;50.360;8.726;2023-05-12T06:47:26;99513.50;;;12.76;100.00
27984;BME280;15317;50.360;8.726;2023-05-12T06:52:30;99523.28;;;13.17;100.00
27984;BME280;15317;50.360;8.726;2023-05-12T06:57:33;99520.41;;;13.19;100.00
27984;BME280;15317;50.360;8.726;2023-05-12T07:02:38;99526.94;;;13.49;100.00
27984;BME280;15317;50.360;8.726;2023-05-12T07:07:41;99518.06;;;13.47;100.00
27984;BME280;15317;50.360;8.726;2023-05-12T07:12:44;99519.78;;;13.48;100.00
27984;BME280;15317;50.360;8.726;2023-05-12T07:17:49;99515.66;;;13.13;100.00
27984;BME280;15317;50.360;8.726;2023-05-12T07:22:53;99520.44;;;13.02;100.00
27984;BME280;15317;50.360;8.726;2023-05-12T07:27:57;99533.00;;;13.03;100.00
27984;BME280;15317;50.360;8.726;2023-05-12T07:33:01;99535.25;;;12.92;100.00
27984;BME280;15317;50.360;8.726;2023-05-12T07:38:06;99534.75;;;12.96;100.00
27984;BME280;15317;50.360;8.726;2023-05-12T07:43:10;99542.41;;;13.01;100.00
27984;BME280;15317;50.360;8.726;2023-05-12T07:48:14;99537.78;;;13.10;100.00
27984;BME280;15317;50.360;8.726;2023-05-12T07:53:18;99529.94;;;13.23;100.00
27984;BME280;15317;50.360;8.726;2023-05-12T07:58:21;99541.66;;;13.31;100.00
27984;BME280;15317;50.360;8.726;2023-05-12T08:03:26;99516.88;;;13.49;100.00
27984;BME280;15317;50.360;8.726;2023-05-12T08:08:29;99533.34;;;13.64;100.00
27984;BME280;15317;50.360;8.726;2023-05-12T08:13:33;99529.56;;;13.65;100.00
27984;BME280;15317;50.360;8.726;2023-05-12T08:18:37;99533.75;;;13.83;100.00
27984;BME280;15317;50.360;8.726;2023-05-12T08:23:40;99546.09;;;14.02;100.00
27984;BME280;15317;50.360;8.726;2023-05-12T08:28:43;99523.09;;;14.42;100.00
27984;BME280;15317;50.360;8.726;2023-05-12T08:33:48;99521.84;;;14.68;100.00
27984;BME280;15317;50.360;8.726;2023-05-12T08:39:10;99505.22;;;14.92;100.00
27984;BME280;15317;50.360;8.726;2023-05-12T08:44:14;99511.16;;;15.10;100.00
27984;BME280;15317;50.360;8.726;2023-05-12T08:49:20;99515.97;;;15.37;100.00
27984;BME280;15317;50.360;8.726;2023-05-12T08:54:26;99508.00;;;15.72;100.00
27984;BME280;15317;50.360;8.726;2023-05-12T08:59:29;99488.66;;;15.73;100.00
27984;BME280;15317;50.360;8.726;2023-05-12T09:04:34;99502.19;;;15.46;100.00
27984;BME280;15317;50.360;8.726;2023-05-12T09:09:41;99498.84;;;15.50;100.00
27984;BME280;15317;50.360;8.726;2023-05-12T09:14:47;99508.25;;;15.56;100.00
27984;BME280;15317;50.360;8.726;2023-05-12T09:19:54;99501.91;;;15.91;100.00
27984;BME280;15317;50.360;8.726;2023-05-12T09:24:57;99504.66;;;16.12;100.00
27984;BME280;15317;50.360;8.726;2023-05-12T09:30:00;99501.63;;;16.43;100.00
27984;BME280;15317;50.360;8.726;2023-05-12T09:35:06;99499.44;;;16.39;100.00
27984;BME280;15317;50.360;8.726;2023-05-12T09:40:12;99497.22;;;15.85;100.00
27984;BME280;15317;50.360;8.726;2023-05-12T09:45:15;99512.75;;;15.63;100.00
27984;BME280;15317;50.360;8.726;2023-05-12T09:50:20;99511.63;;;14.99;100.00
27984;BME280;15317;50.360;8.726;2023-05-12T09:55:24;99515.94;;;14.79;100.00
27984;BME280;15317;50.360;8.726;2023-05-12T10:00:28;99538.81;;;14.40;100.00
27984;BME280;15317;50.360;8.726;2023-05-12T10:05:56;99523.72;;;14.52;100.00
27984;BME280;15317;50.360;8.726;2023-05-12T10:11:00;99509.56;;;15.01;100.00
27984;BME280;15317;50.360;8.726;2023-05-12T10:16:04;99526.25;;;15.35;100.00
27984;BME280;15317;50.360;8.726;2023-05-12T10:21:11;99516.03;;;15.44;100.00
27984;BME280;15317;50.360;8.726;2023-05-12T10:26:15;99509.91;;;15.57;100.00
27984;BME280;15317;50.360;8.726;2023-05-12T10:31:19;99513.91;;;15.25;100.00
27984;BME280;15317;50.360;8.726;2023-05-12T10:36:25;99517.53;;;14.88;100.00
27984;BME280;15317;50.360;8.726;2023-05-12T10:41:29;99525.94;;;14.72;100.00
27984;BME280;15317;50.360;8.726;2023-05-12T10:46:32;99541.94;;;14.75;100.00
27984;BME280;15317;50.360;8.726;2023-05-12T10:51:47;99541.75;;;15.14;100.00
27984;BME280;15317;50.360;8.726;2023-05-12T10:56:52;99534.88;;;15.62;100.00
27984;BME280;15317;50.360;8.726;2023-05-12T11:01:57;99518.63;;;16.17;100.00
27984;BME280;15317;50.360;8.726;2023-05-12T11:07:06;99508.97;;;16.85;100.00
27984;BME280;15317;50.360;8.726;2023-05-12T11:12:11;99496.09;;;16.92;100.00
27984;BME280;15317;50.360;8.726;2023-05-12T11:17:15;99497.72;;;17.49;100.00
27984;BME280;15317;50.360;8.726;2023-05-12T11:22:20;99501.28;;;17.09;100.00
27984;BME280;15317;50.360;8.726;2023-05-12T11:27:23;99503.38;;;17.07;100.00
27984;BME280;15317;50.360;8.726;2023-05-12T11:32:27;99508.03;;;17.06;100.00
27984;BME280;15317;50.360;8.726;2023-05-12T11:37:36;99514.44;;;16.85;100.00
27984;BME280;15317;50.360;8.726;2023-05-12T11:42:39;99506.88;;;16.94;100.00
27984;BME280;15317;50.360;8.726;2023-05-12T11:47:46;99506.00;;;16.87;100.00
27984;BME280;15317;50.360;8.726;2023-05-12T11:52:51;99505.09;;;17.08;100.00
27984;BME280;15317;50.360;8.726;2023-05-12T11:57:57;99508.69;;;16.80;99.18
27984;BME280;15317;50.360;8.726;2023-05-12T12:03:05;99514.06;;;16.67;100.00
27984;BME280;15317;50.360;8.726;2023-05-12T12:08:12;99507.69;;;16.60;100.00
27984;BME280;15317;50.360;8.726;2023-05-12T12:13:19;99513.69;;;16.70;100.00
27984;BME280;15317;50.360;8.726;2023-05-12T12:18:22;99520.03;;;16.71;100.00
27984;BME280;15317;50.360;8.726;2023-05-12T12:23:27;99514.47;;;16.64;100.00
27984;BME280;15317;50.360;8.726;2023-05-12T12:28:41;99520.47;;;16.74;100.00
27984;BME280;15317;50.360;8.726;2023-05-12T12:33:44;99517.56;;;16.82;98.40
27984;BME280;15317;50.360;8.726;2023-05-12T12:38:49;99528.50;;;17.04;100.00
27984;BME280;15317;50.360;8.726;2023-05-12T12:43:52;99517.44;;;17.25;93.89
27984;BME280;15317;50.360;8.726;2023-05-12T12:48:55;99524.88;;;17.65;95.26
27984;BME280;15317;50.360;8.726;2023-05-12T12:54:00;99525.22;;;18.10;83.20
27984;BME280;15317;50.360;8.726;2023-05-12T12:59:03;99523.56;;;18.29;81.80
27984;BME280;15317;50.360;8.726;2023-05-12T13:04:07;99524.25;;;18.50;79.15
27984;BME280;15317;50.360;8.726;2023-05-12T13:09:12;99511.34;;;18.51;76.87
27984;BME280;15317;50.360;8.726;2023-05-12T13:14:15;99503.09;;;18.51;76.97
27984;BME280;15317;50.360;8.726;2023-05-12T13:19:19;99509.91;;;18.62;78.63
27984;BME280;15317;50.360;8.726;2023-05-12T13:24:23;99502.81;;;19.31;80.45
27984;BME280;15317;50.360;8.726;2023-05-12T13:29:27;99507.50;;;19.38;67.46
27984;BME280;15317;50.360;8.726;2023-05-12T13:34:30;99508.22;;;19.78;72.89
27984;BME280;15317;50.360;8.726;2023-05-12T13:39:35;99513.59;;;19.53;71.25
27984;BME280;15317;50.360;8.726;2023-05-12T13:44:38;99507.75;;;19.16;67.70
27984;BME280;15317;50.360;8.726;2023-05-12T13:49:42;99504.19;;;18.96;67.31
27984;BME280;15317;50.360;8.726;2023-05-12T13:54:47;99502.63;;;19.26;63.41
27984;BME280;15317;50.360;8.726;2023-05-12T13:59:51;99505.22;;;19.79;65.77
27984;BME280;15317;50.360;8.726;2023-05-12T14:04:58;99506.69;;;19.88;64.30
27984;BME280;15317;50.360;8.726;2023-05-12T14:10:03;99497.41;;;19.76;63.10
27984;BME280;15317;50.360;8.726;2023-05-12T14:15:07;99500.94;;;19.25;66.17
27984;BME280;15317;50.360;8.726;2023-05-12T14:20:30;99501.75;;;20.03;63.40
27984;BME280;15317;50.360;8.726;2023-05-12T14:25:35;99504.28;;;20.43;60.91
27984;BME280;15317;50.360;8.726;2023-05-12T14:30:38;99503.84;;;20.46;62.38
27984;BME280;15317;50.360;8.726;2023-05-12T14:35:42;99502.78;;;20.02;62.29
27984;BME280;15317;50.360;8.726;2023-05-12T14:41:02;99498.81;;;19.34;61.45
27984;BME280;15317;50.360;8.726;2023-05-12T14:46:05;99494.44;;;18.93;64.50
27984;BME280;15317;50.360;8.726;2023-05-12T14:51:09;99498.22;;;18.46;69.85
27984;BME280;15317;50.360;8.726;2023-05-12T14:56:14;99508.56;;;18.31;71.20
27984;BME280;15317;50.360;8.726;2023-05-12T15:01:18;99510.22;;;17.99;72.15
27984;BME280;15317;50.360;8.726;2023-05-12T15:06:22;99505.91;;;17.77;70.81
27984;BME280;15317;50.360;8.726;2023-05-12T15:11:26;99514.03;;;17.57;77.98
27984;BME280;15317;50.360;8.726;2023-05-12T15:16:30;99522.81;;;17.40;77.33
27984;BME280;15317;50.360;8.726;2023-05-12T15:21:34;99523.22;;;17.36;81.48
27984;BME280;15317;50.360;8.726;2023-05-12T15:26:39;99525.09;;;17.36;76.10
27984;BME280;15317;50.360;8.726;2023-05-12T15:31:42;99533.50;;;17.28;82.70
27984;BME280;15317;50.360;8.726;2023-05-12T15:36:46;99569.75;;;17.17;82.76
27984;BME280;15317;50.360;8.726;2023-05-12T15:41:51;99563.13;;;16.77;76.67
27984;BME280;15317;50.360;8.726;2023-05-12T15:46:54;99556.66;;;16.63;79.21
27984;BME280;15317;50.360;8.726;2023-05-12T15:51:57;99555.06;;;16.33;77.69
27984;BME280;15317;50.360;8.726;2023-05-12T15:57:03;99553.69;;;16.22;86.35
27984;BME280;15317;50.360;8.726;2023-05-12T16:02:06;99551.63;;;15.88;90.76
27984;BME280;15317;50.360;8.726;2023-05-12T16:07:09;99550.34;;;15.55;96.41
27984;BME280;15317;50.360;8.726;2023-05-12T16:12:14;99558.44;;;15.33;95.02
27984;BME280;15317;50.360;8.726;2023-05-12T16:17:17;99546.56;;;15.26;92.89
27984;BME280;15317;50.360;8.726;2023-05-12T16:22:20;99555.50;;;15.20;94.43
27984;BME280;15317;50.360;8.726;2023-05-12T16:27:25;99559.53;;;15.10;93.25
27984;BME280;15317;50.360;8.726;2023-05-12T16:32:28;99558.88;;;14.93;93.78
27984;BME280;15317;50.360;8.726;2023-05-12T16:37:31;99561.88;;;14.83;89.37
27984;BME280;15317;50.360;8.726;2023-05-12T16:42:36;99555.94;;;14.80;93.10
27984;BME280;15317;50.360;8.726;2023-05-12T16:47:39;99549.84;;;14.70;94.67
27984;BME280;15317;50.360;8.726;2023-05-12T16:52:42;99559.47;;;14.66;93.74
27984;BME280;15317;50.360;8.726;2023-05-12T16:57:47;99564.63;;;14.60;96.56
27984;BME280;15317;50.360;8.726;2023-05-12T17:02:50;99575.81;;;14.51;99.47
27984;BME280;15317;50.360;8.726;2023-05-12T17:07:54;99584.25;;;14.41;100.00
27984;BME280;15317;50.360;8.726;2023-05-12T17:12:58;99580.03;;;14.39;100.00
27984;BME280;15317;50.360;8.726;2023-05-12T17:18:02;99581.19;;;14.36;100.00
27984;BME280;15317;50.360;8.726;2023-05-12T17:23:06;99579.53;;;14.27;100.00
27984;BME280;15317;50.360;8.726;2023-05-12T17:28:11;99582.88;;;14.14;100.00
27984;BME280;15317;50.360;8.726;2023-05-12T17:33:15;99578.63;;;14.12;100.00
27984;BME280;15317;50.360;8.726;2023-05-12T17:38:19;99566.59;;;13.98;100.00
27984;BME280;15317;50.360;8.726;2023-05-12T17:43:24;99572.09;;;13.90;100.00
27984;BME280;15317;50.360;8.726;2023-05-12T17:48:27;99590.22;;;13.83;100.00
27984;BME280;15317;50.360;8.726;2023-05-12T17:53:34;99594.53;;;13.77;100.00
27984;BME280;15317;50.360;8.726;2023-05-12T17:58:39;99606.19;;;13.63;100.00
27984;BME280;15317;50.360;8.726;2023-05-12T18:03:42;99603.47;;;13.63;100.00
27984;BME280;15317;50.360;8.726;2023-05-12T18:08:45;99619.19;;;13.53;100.00
27984;BME280;15317;50.360;8.726;2023-05-12T18:13:50;99628.06;;;13.39;100.00
27984;BME280;15317;50.360;8.726;2023-05-12T18:18:54;99629.94;;;13.38;100.00
27984;BME280;15317;50.360;8.726;2023-05-12T18:23:58;99640.38;;;13.35;100.00
27984;BME280;15317;50.360;8.726;2023-05-12T18:29:02;99645.84;;;13.35;100.00
27984;BME280;15317;50.360;8.726;2023-05-12T18:34:06;99646.53;;;13.29;100.00
27984;BME280;15317;50.360;8.726;2023-05-12T18:39:09;99646.72;;;13.19;100.00
27984;BME280;15317;50.360;8.726;2023-05-12T18:44:13;99650.25;;;13.12;100.00
27984;BME280;15317;50.360;8.726;2023-05-12T18:49:17;99654.38;;;13.07;100.00
27984;BME280;15317;50.360;8.726;2023-05-12T18:54:20;99649.94;;;12.98;100.00
27984;BME280;15317;50.360;8.726;2023-05-12T18:59:25;99661.03;;;12.89;100.00
27984;BME280;15317;50.360;8.726;2023-05-12T19:04:29;99660.50;;;12.85;100.00
27984;BME280;15317;50.360;8.726;2023-05-12T19:09:32;99677.53;;;12.79;100.00
27984;BME280;15317;50.360;8.726;2023-05-12T19:14:37;99676.50;;;12.72;100.00
27984;BME280;15317;50.360;8.726;2023-05-12T19:19:41;99677.88;;;12.76;100.00
27984;BME280;15317;50.360;8.726;2023-05-12T19:24:44;99675.66;;;12.80;100.00
27984;BME280;15317;50.360;8.726;2023-05-12T19:29:48;99686.59;;;12.88;100.00
27984;BME280;15317;50.360;8.726;2023-05-12T19:34:52;99696.28;;;12.82;100.00
27984;BME280;15317;50.360;8.726;2023-05-12T19:39:56;99696.28;;;12.66;100.00
27984;BME280;15317;50.360;8.726;2023-05-12T19:45:02;99703.75;;;12.48;100.00
27984;BME280;15317;50.360;8.726;2023-05-12T19:50:06;99719.13;;;12.23;100.00
27984;BME280;15317;50.360;8.726;2023-05-12T19:55:09;99734.88;;;12.03;100.00
27984;BME280;15317;50.360;8.726;2023-05-12T20:00:14;99740.88;;;11.81;100.00
27984;BME280;15317;50.360;8.726;2023-05-12T20:05:18;99738.00;;;11.57;100.00
27984;BME280;15317;50.360;8.726;2023-05-12T20:10:21;99744.72;;;11.44;100.00
27984;BME280;15317;50.360;8.726;2023-05-12T20:15:26;99746.53;;;11.36;100.00
27984;BME280;15317;50.360;8.726;2023-05-12T20:20:29;99738.06;;;11.21;100.00
27984;BME280;15317;50.360;8.726;2023-05-12T20:25:32;99754.31;;;11.13;100.00
27984;BME280;15317;50.360;8.726;2023-05-12T20:30:38;99748.19;;;11.11;100.00
27984;BME280;15317;50.360;8.726;2023-05-12T20:35:41;99741.34;;;11.07;100.00
27984;BME280;15317;50.360;8.726;2023-05-12T20:40:45;99752.84;;;11.01;100.00
27984;BME280;15317;50.360;8.726;2023-05-12T20:45:50;99737.97;;;11.05;100.00
27984;BME280;15317;50.360;8.726;2023-05-12T20:50:53;99741.13;;;11.00;100.00
27984;BME280;15317;50.360;8.726;2023-05-12T20:55:57;99745.03;;;10.98;100.00
27984;BME280;15317;50.360;8.726;2023-05-12T21:01:02;99738.50;;;10.91;100.00
27984;BME280;15317;50.360;8.726;2023-05-12T21:06:05;99739.19;;;10.93;100.00
27984;BME280;15317;50.360;8.726;2023-05-12T21:11:14;99736.66;;;10.91;100.00
27984;BME280;15317;50.360;8.726;2023-05-12T21:16:19;99748.91;;;10.95;100.00
27984;BME280;15317;50.360;8.726;2023-05-12T21:21:22;99737.63;;;11.08;100.00
27984;BME280;15317;50.360;8.726;2023-05-12T21:26:26;99734.66;;;11.19;100.00
27984;BME280;15317;50.360;8.726;2023-05-12T21:31:30;99737.44;;;11.27;100.00
27984;BME280;15317;50.360;8.726;2023-05-12T21:36:33;99742.88;;;11.27;100.00
27984;BME280;15317;50.360;8.726;2023-05-12T21:41:37;99733.59;;;11.12;100.00
27984;BME280;15317;50.360;8.726;2023-05-12T21:46:43;99738.56;;;10.99;100.00
27984;BME280;15317;50.360;8.726;2023-05-12T21:51:46;99733.00;;;10.83;100.00
27984;BME280;15317;50.360;8.726;2023-05-12T21:56:50;99742.69;;;10.67;100.00
27984;BME280;15317;50.360;8.726;2023-05-12T22:01:55;99749.03;;;10.58;100.00
27984;BME280;15317;50.360;8.726;2023-05-12T22:06:58;99753.31;;;10.43;100.00
27984;BME280;15317;50.360;8.726;2023-05-12T22:12:02;99760.78;;;10.32;100.00
27984;BME280;15317;50.360;8.726;2023-05-12T22:17:07;99766.13;;;10.23;100.00
27984;BME280;15317;50.360;8.726;2023-05-12T22:22:10;99769.00;;;10.12;100.00
27984;BME280;15317;50.360;8.726;2023-05-12T22:27:14;99779.91;;;10.03;100.00
27984;BME280;15317;50.360;8.726;2023-05-12T22:32:23;99787.81;;;9.96;100.00
27984;BME280;15317;50.360;8.726;2023-05-12T22:37:27;99794.38;;;9.94;100.00
27984;BME280;15317;50.360;8.726;2023-05-12T22:42:30;99796.09;;;9.95;100.00
27984;BME280;15317;50.360;8.726;2023-05-12T22:47:34;99795.47;;;10.01;100.00
27984;BME280;15317;50.360;8.726;2023-05-12T22:52:38;99804.59;;;10.09;100.00
27984;BME280;15317;50.360;8.726;2023-05-12T22:57:41;99810.88;;;10.19;100.00
27984;BME280;15317;50.360;8.726;2023-05-12T23:02:48;99812.22;;;10.33;100.00
27984;BME280;15317;50.360;8.726;2023-05-12T23:07:51;99816.75;;;10.42;100.00
27984;BME280;15317;50.360;8.726;2023-05-12T23:12:55;99811.81;;;10.55;100.00
27984;BME280;15317;50.360;8.726;2023-05-12T23:18:00;99806.50;;;10.63;100.00
27984;BME280;15317;50.360;8.726;2023-05-12T23:23:03;99817.19;;;10.65;100.00
27984;BME280;15317;50.360;8.726;2023-05-12T23:28:06;99811.81;;;10.55;100.00
27984;BME280;15317;50.360;8.726;2023-05-12T23:33:11;99800.72;;;10.49;100.00
27984;BME280;15317;50.360;8.726;2023-05-12T23:38:15;99801.16;;;10.44;100.00
27984;BME280;15317;50.360;8.726;2023-05-12T23:43:18;99795.31;;;10.39;100.00
27984;BME280;15317;50.360;8.726;2023-05-12T23:48:23;99793.00;;;10.44;100.00
27984;BME280;15317;50.360;8.726;2023-05-12T23:53:27;99797.25;;;10.56;100.00
27984;BME280;15317;50.360;8.726;2023-05-12T23:58:30;99791.19;;;10.62;100.00
